Time;durP1;ratioP1;P1;durP2;ratioP2;P2;SDS_P1;SDS_P2;PMS_P1;PMS_P2;Temp;Humidity;BMP_temperature;BMP_pressure;BME280_temperature;BME280_humidity;BME280_pressure;Samples;Min_cycle;Max_cycle;Signal;HPM_P1;HPM_P2
2022/06/16 00:02:49;;;;;;;4.97;4.13;;;;;17.10;101346.00;;;;10226035;28;20261;-79
2022/06/16 00:07:51;;;;;;;6.63;4.20;;;;;17.00;101346.00;;;;10211377;28;20226;-78
2022/06/16 00:12:53;;;;;;;8.17;4.37;;;;;16.90;101347.00;;;;10207388;28;20303;-78
2022/06/16 00:17:57;;;;;;;7.63;4.73;;;;;16.90;101360.00;;;;10202778;28;20253;-80
2022/06/16 00:22:58;;;;;;;6.77;4.43;;;;;16.80;101356.00;;;;10218317;28;20304;-78
2022/06/16 00:28:01;;;;;;;6.90;5.07;;;;;16.70;101368.00;;;;10227690;28;20280;-78
2022/06/16 00:33:03;;;;;;;6.43;4.00;;;;;16.50;101367.00;;;;10260175;28;20216;-78
2022/06/16 00:38:05;;;;;;;9.90;5.50;;;;;16.40;101360.00;;;;10225406;29;20264;-77
2022/06/16 00:43:09;;;;;;;7.87;4.90;;;;;16.30;101360.00;;;;10240706;28;20233;-78
2022/06/16 00:48:35;;;;;;;6.20;5.10;;;;;16.20;101362.00;;;;10218282;29;20202;-78
2022/06/16 00:53:39;;;;;;;7.70;5.07;;;;;16.20;101367.00;;;;10223793;29;20225;-79
2022/06/16 00:58:45;;;;;;;11.27;5.10;;;;;16.10;101365.00;;;;10226579;29;20257;-77
2022/06/16 01:09:16;;;;;;;6.07;5.37;;;;;15.80;101360.00;;;;10232886;29;20233;-78
2022/06/16 01:14:33;;;;;;;7.77;5.70;;;;;15.60;101362.00;;;;10241999;28;20222;-77
2022/06/16 01:20:05;;;;;;;8.57;5.67;;;;;15.50;101366.00;;;;10186843;29;20213;-78
2022/06/16 01:25:22;;;;;;;8.03;5.50;;;;;15.50;101367.00;;;;10237877;28;20193;-77
2022/06/16 01:30:47;;;;;;;7.90;5.23;;;;;15.30;101369.00;;;;10207102;28;20759;-77
2022/06/16 01:36:02;;;;;;;12.47;6.13;;;;;15.20;101383.00;;;;10227202;28;20216;-77
2022/06/16 01:41:34;;;;;;;11.17;5.73;;;;;15.10;101389.00;;;;10208226;29;20202;-76
2022/06/16 01:46:41;;;;;;;8.67;5.63;;;;;15.00;101376.00;;;;10209928;28;20194;-78
2022/06/16 01:51:54;;;;;;;8.67;6.20;;;;;14.90;101374.00;;;;10209116;28;20217;-78
2022/06/16 01:57:01;;;;;;;7.60;6.20;;;;;14.90;101379.00;;;;10257792;28;20186;-78
2022/06/16 02:02:15;;;;;;;9.77;5.97;;;;;14.80;101384.00;;;;10210296;28;20188;-77
2022/06/16 02:07:22;;;;;;;7.37;6.10;;;;;14.70;101394.00;;;;10237232;28;20280;-78
2022/06/16 02:18:03;;;;;;;8.23;7.10;;;;;14.50;101415.00;;;;10229580;28;20202;-78
2022/06/16 02:23:05;;;;;;;9.30;7.00;;;;;14.40;101424.00;;;;10210043;28;20202;-78
2022/06/16 02:28:07;;;;;;;8.43;7.53;;;;;14.40;101446.00;;;;10249107;29;20194;-77
2022/06/16 02:33:21;;;;;;;9.97;7.40;;;;;14.30;101443.00;;;;10198505;28;20646;-77
2022/06/16 02:39:02;;;;;;;8.83;7.13;;;;;14.20;101449.00;;;;10206810;28;20202;-77
2022/06/16 02:44:18;;;;;;;8.17;6.50;;;;;14.20;101446.00;;;;10185675;28;20202;-78
2022/06/16 02:49:31;;;;;;;8.27;7.37;;;;;14.20;101455.00;;;;10232249;28;20194;-77
2022/06/16 02:54:55;;;;;;;9.27;7.40;;;;;14.10;101458.00;;;;10232818;28;20580;-77
2022/06/16 03:00:01;;;;;;;8.80;7.67;;;;;14.00;101469.00;;;;10221582;28;20589;-77
2022/06/16 03:05:07;;;;;;;10.67;8.23;;;;;14.00;101464.00;;;;10242714;28;20194;-76
2022/06/16 03:10:13;;;;;;;11.50;8.00;;;;;13.90;101464.00;;;;10232772;28;20241;-77
2022/06/16 03:15:15;;;;;;;8.87;7.97;;;;;13.80;101469.00;;;;10216513;29;20213;-78
2022/06/16 03:20:18;;;;;;;9.83;8.03;;;;;13.80;101468.00;;;;10238841;28;20234;-78
2022/06/16 03:25:21;;;;;;;10.10;8.80;;;;;13.70;101486.00;;;;10247749;28;20237;-77
2022/06/16 03:30:24;;;;;;;10.93;7.63;;;;;13.60;101476.00;;;;10193008;28;20226;-78
2022/06/16 03:35:27;;;;;;;10.43;8.57;;;;;13.60;101491.00;;;;10221029;28;20234;-78
2022/06/16 03:40:32;;;;;;;13.43;9.13;;;;;13.70;101490.00;;;;10231182;28;20202;-78
2022/06/16 03:45:39;;;;;;;11.93;8.93;;;;;13.70;101493.00;;;;10229081;28;20190;-77
2022/06/16 03:50:41;;;;;;;10.60;8.33;;;;;13.90;101495.00;;;;10215492;29;20937;-78
2022/06/16 03:55:44;;;;;;;11.17;9.00;;;;;14.00;101491.00;;;;10230444;28;20202;-78
2022/06/16 04:00:46;;;;;;;13.37;8.10;;;;;14.10;101503.00;;;;10211505;28;20193;-77
2022/06/16 04:05:48;;;;;;;8.87;7.90;;;;;14.20;101502.00;;;;10246514;28;20581;-77
2022/06/16 04:10:51;;;;;;;11.13;7.70;;;;;14.30;101515.00;;;;10232108;28;20201;-78
2022/06/16 04:15:53;;;;;;;9.07;7.57;;;;;14.60;101525.00;;;;10245362;28;20200;-78
2022/06/16 04:20:57;;;;;;;10.13;8.50;;;;;14.90;101535.00;;;;10214006;28;20193;-78
2022/06/16 04:26:33;;;;;;;8.53;7.60;;;;;15.10;101548.00;;;;10218841;28;20204;-78
2022/06/16 04:31:37;;;;;;;9.93;7.77;;;;;15.20;101556.00;;;;10228528;28;20214;-78
2022/06/16 04:36:40;;;;;;;12.73;7.83;;;;;15.30;101558.00;;;;10259293;28;20213;-78
2022/06/16 04:41:48;;;;;;;9.63;8.07;;;;;15.40;101553.00;;;;10228219;28;20277;-78
2022/06/16 04:46:52;;;;;;;11.00;7.80;;;;;15.50;101563.00;;;;10187592;28;20252;-77
2022/06/16 04:51:59;;;;;;;9.63;8.10;;;;;15.60;101562.00;;;;10207821;28;20225;-78
2022/06/16 04:57:03;;;;;;;10.47;7.50;;;;;15.70;101564.00;;;;10217105;28;20206;-78
2022/06/16 05:02:18;;;;;;;12.87;8.23;;;;;16.00;101558.00;;;;10210782;28;20189;-78
2022/06/16 05:07:30;;;;;;;11.50;8.33;;;;;16.30;101555.00;;;;10246862;28;20226;-78
2022/06/16 05:12:42;;;;;;;10.73;7.93;;;;;16.50;101552.00;;;;10235081;28;20213;-78
2022/06/16 05:18:04;;;;;;;8.90;7.23;;;;;17.20;101561.00;;;;10241542;28;20200;-78
2022/06/16 05:23:18;;;;;;;12.87;7.70;;;;;17.70;101568.00;;;;10180601;29;20190;-78
2022/06/16 05:28:26;;;;;;;12.67;7.47;;;;;18.20;101568.00;;;;10228688;28;20220;-79
2022/06/16 05:33:47;;;;;;;12.27;7.93;;;;;18.70;101579.00;;;;10226875;28;20201;-77
2022/06/16 05:39:14;;;;;;;10.95;7.18;;;;;19.30;101584.00;;;;10243977;28;20245;-79
2022/06/16 05:44:24;;;;;;;9.32;6.53;;;;;19.90;101592.00;;;;10246489;28;20248;-79
2022/06/16 05:49:46;;;;;;;6.75;5.70;;;;;20.20;101601.00;;;;10185545;28;20202;-77
2022/06/16 05:54:48;;;;;;;11.00;6.35;;;;;20.60;101603.00;;;;10226690;28;20218;-78
2022/06/16 05:59:52;;;;;;;10.32;6.10;;;;;21.00;101617.00;;;;10224834;28;20189;-78
2022/06/16 06:04:53;;;;;;;9.15;6.18;;;;;21.10;101620.00;;;;10212657;28;20205;-78
2022/06/16 06:20:44;;;;;;;9.25;5.82;;;;;21.90;101630.00;;;;10224134;28;21916;-79
2022/06/16 06:25:47;;;;;;;9.32;5.63;;;;;22.50;101648.00;;;;10224545;28;20657;-78
2022/06/16 06:30:49;;;;;;;12.65;6.43;;;;;23.10;101651.00;;;;10201064;28;20202;-79
2022/06/16 06:35:51;;;;;;;8.80;5.70;;;;;23.50;101663.00;;;;10220874;28;20700;-77
2022/06/16 06:40:53;;;;;;;15.50;5.85;;;;;23.80;101670.00;;;;10222918;28;20292;-78
2022/06/16 06:45:55;;;;;;;8.40;5.25;;;;;24.10;101681.00;;;;10224940;28;20189;-78
2022/06/16 06:50:57;;;;;;;9.23;5.22;;;;;24.40;101683.00;;;;10239257;28;20196;-79
2022/06/16 06:56:00;;;;;;;7.32;5.38;;;;;24.70;101695.00;;;;10207901;28;20220;-78
2022/06/16 07:01:02;;;;;;;8.13;5.03;;;;;24.90;101703.00;;;;10195777;28;20573;-79
2022/06/16 07:06:04;;;;;;;12.07;6.32;;;;;25.10;101700.00;;;;10216455;28;20218;-79
2022/06/16 07:11:06;;;;;;;10.65;5.28;;;;;25.20;101696.00;;;;10226922;28;20601;-79
2022/06/16 07:16:09;;;;;;;9.27;5.30;;;;;25.30;101703.00;;;;10202777;28;20260;-79
2022/06/16 07:21:14;;;;;;;9.18;5.55;;;;;25.50;101699.00;;;;10182773;28;20202;-78
2022/06/16 07:26:16;;;;;;;7.88;5.45;;;;;25.80;101711.00;;;;10230603;28;20284;-78
2022/06/16 07:31:18;;;;;;;7.60;5.18;;;;;26.10;101728.00;;;;10237669;28;20189;-79
2022/06/16 07:36:36;;;;;;;7.65;4.97;;;;;26.60;101744.00;;;;10214788;29;20197;-79
2022/06/16 07:41:39;;;;;;;8.40;4.80;;;;;27.00;101748.00;;;;10213709;28;20254;-79
2022/06/16 07:46:44;;;;;;;7.68;5.30;;;;;27.40;101745.00;;;;10220805;29;20580;-78
2022/06/16 07:51:46;;;;;;;6.95;5.18;;;;;27.60;101746.00;;;;10228490;28;20252;-79
2022/06/16 07:56:48;;;;;;;8.02;4.45;;;;;27.90;101753.00;;;;10221523;28;20290;-80
2022/06/16 08:01:50;;;;;;;9.73;4.93;;;;;27.90;101757.00;;;;10230462;28;20546;-79
2022/06/16 08:06:52;;;;;;;6.28;4.40;;;;;28.40;101751.00;;;;10191079;28;20281;-77
2022/06/16 08:12:03;;;;;;;9.95;4.85;;;;;28.40;101749.00;;;;10223673;28;20202;-78
2022/06/16 08:17:10;;;;;;;10.48;4.80;;;;;28.60;101743.00;;;;10215267;28;20554;-77
2022/06/16 08:22:12;;;;;;;6.15;4.30;;;;;28.50;101741.00;;;;10247923;28;20206;-77
2022/06/16 08:27:18;;;;;;;7.60;4.60;;;;;28.90;101751.00;;;;10191085;28;20198;-78
2022/06/16 08:32:21;;;;;;;7.25;4.80;;;;;28.90;101747.00;;;;10221912;28;20657;-77
2022/06/16 08:37:24;;;;;;;5.15;4.38;;;;;29.30;101754.00;;;;10233021;28;20198;-78
2022/06/16 08:42:39;;;;;;;18.05;5.35;;;;;29.40;101745.00;;;;10223545;29;20233;-77
2022/06/16 08:47:51;;;;;;;8.52;3.80;;;;;29.60;101740.00;;;;10204858;28;20291;-77
2022/06/16 08:53:07;;;;;;;7.25;4.07;;;;;29.70;101734.00;;;;10222659;28;20234;-77
2022/06/16 08:58:18;;;;;;;5.00;2.90;;;;;30.00;101743.00;;;;10236187;28;20205;-78
2022/06/16 09:03:48;;;;;;;4.93;3.08;;;;;30.40;101746.00;;;;10215255;29;20217;-77
2022/06/16 09:09:15;;;;;;;5.63;4.00;;;;;30.40;101754.00;;;;10240706;28;20225;-77
2022/06/16 09:15:10;;;;;;;8.75;4.13;;;;;30.60;101762.00;;;;10217295;29;20637;-77
2022/06/16 09:20:28;;;;;;;7.15;3.65;;;;;31.00;101768.00;;;;10228229;28;20670;-78
2022/06/16 09:25:36;;;;;;;8.43;4.07;;;;;31.10;101771.00;;;;10200694;28;20248;-78
2022/06/16 09:30:48;;;;;;;7.00;3.83;;;;;31.30;101770.00;;;;10213945;28;20249;-77
2022/06/16 09:36:01;;;;;;;6.25;2.85;;;;;31.50;101777.00;;;;10195263;29;20649;-78
2022/06/16 09:46:45;;;;;;;7.95;2.70;;;;;31.90;101763.00;;;;10220036;28;20232;-77
2022/06/16 09:51:52;;;;;;;8.43;2.42;;;;;32.00;101766.00;;;;10191168;28;20194;-78
2022/06/16 09:57:07;;;;;;;6.90;3.00;;;;;32.30;101771.00;;;;10220031;29;20249;-77
2022/06/16 10:02:19;;;;;;;6.53;2.83;;;;;32.60;101776.00;;;;10202107;28;20264;-77
2022/06/16 10:07:25;;;;;;;9.52;3.85;;;;;32.70;101783.00;;;;10235791;28;20261;-77
2022/06/16 10:12:37;;;;;;;10.52;3.55;;;;;32.60;101790.00;;;;10215225;28;20198;-77
2022/06/16 10:17:42;;;;;;;5.50;2.70;;;;;32.60;101782.00;;;;10217477;28;20285;-77
2022/06/16 10:22:48;;;;;;;7.03;2.85;;;;;32.50;101781.00;;;;10186304;28;20217;-78
2022/06/16 10:27:56;;;;;;;4.55;2.10;;;;;32.60;101784.00;;;;10226875;28;20190;-78
2022/06/16 10:33:00;;;;;;;7.35;2.47;;;;;32.00;101791.00;;;;10227332;28;20195;-77
2022/06/16 10:38:03;;;;;;;3.60;2.38;;;;;32.50;101794.00;;;;10194322;29;20206;-77
2022/06/16 10:43:11;;;;;;;7.05;2.47;;;;;33.20;101789.00;;;;10228865;29;20212;-78
2022/06/16 10:48:51;;;;;;;3.67;1.95;;;;;32.90;101775.00;;;;10212806;28;20593;-77
2022/06/16 10:54:19;;;;;;;2.85;2.30;;;;;32.90;101771.00;;;;10178134;29;20216;-77
2022/06/16 10:59:28;;;;;;;3.05;1.67;;;;;32.20;101760.00;;;;10214855;28;20261;-77
2022/06/16 11:04:44;;;;;;;3.78;2.40;;;;;32.60;101757.00;;;;10221780;28;20209;-77
2022/06/16 11:09:52;;;;;;;3.97;2.38;;;;;33.10;101753.00;;;;10263675;28;20264;-77
2022/06/16 11:14:59;;;;;;;4.40;2.22;;;;;33.10;101755.00;;;;10244099;28;20193;-77
2022/06/16 11:20:16;;;;;;;3.38;2.13;;;;;33.20;101766.00;;;;10243982;28;20193;-78
2022/06/16 11:25:30;;;;;;;4.30;2.13;;;;;33.60;101777.00;;;;10180994;29;20221;-77
2022/06/16 11:30:38;;;;;;;4.68;2.35;;;;;33.90;101775.00;;;;10239046;28;20216;-77
2022/06/16 11:35:49;;;;;;;5.50;2.50;;;;;33.80;101774.00;;;;10204626;28;20232;-77
2022/06/16 11:40:57;;;;;;;4.93;2.05;;;;;33.80;101771.00;;;;10192560;28;20206;-77
2022/06/16 11:46:08;;;;;;;5.55;2.45;;;;;33.70;101779.00;;;;10239628;28;20233;-77
2022/06/16 11:51:37;;;;;;;3.13;2.20;;;;;33.60;101788.00;;;;10196612;29;20887;-77
2022/06/16 11:56:44;;;;;;;4.07;2.35;;;;;33.90;101789.00;;;;10203616;28;20242;-77
2022/06/16 12:01:51;;;;;;;13.75;3.30;;;;;34.30;101784.00;;;;10209856;28;20535;-77
2022/06/16 12:07:34;;;;;;;4.90;2.30;;;;;34.10;101804.00;;;;10192893;28;20318;-77
2022/06/16 12:12:38;;;;;;;3.88;2.65;;;;;33.40;101790.00;;;;10212127;28;20193;-77
2022/06/16 12:18:04;;;;;;;4.35;2.00;;;;;33.40;101775.00;;;;10200636;28;20205;-76
2022/06/16 12:23:25;;;;;;;4.57;2.05;;;;;33.70;101791.00;;;;10205077;28;20300;-77
2022/06/16 12:28:46;;;;;;;6.55;2.40;;;;;34.20;101791.00;;;;10229558;28;20613;-78
2022/06/16 12:34:05;;;;;;;4.30;2.40;;;;;34.20;101787.00;;;;10215128;28;20284;-77
2022/06/16 12:39:25;;;;;;;3.67;2.13;;;;;34.10;101787.00;;;;10207709;28;20205;-77
2022/06/16 12:44:51;;;;;;;3.22;1.80;;;;;34.20;101779.00;;;;10257370;28;20687;-77
2022/06/16 12:50:05;;;;;;;3.92;2.17;;;;;34.10;101780.00;;;;10201106;28;20240;-77
2022/06/16 12:55:15;;;;;;;4.07;1.90;;;;;33.90;101786.00;;;;10216660;28;20178;-77
2022/06/16 13:00:19;;;;;;;6.63;2.30;;;;;33.50;101788.00;;;;10229874;28;20637;-77
2022/06/16 13:05:28;;;;;;;3.90;1.90;;;;;32.90;101790.00;;;;10220296;28;20220;-77
2022/06/16 13:10:37;;;;;;;4.15;2.33;;;;;33.00;101778.00;;;;10183283;28;20237;-77
2022/06/16 13:15:45;;;;;;;3.25;1.95;;;;;32.90;101777.00;;;;10216960;28;20662;-77
2022/06/16 13:20:52;;;;;;;3.65;2.10;;;;;33.20;101777.00;;;;10209170;28;20204;-77
2022/06/16 13:26:15;;;;;;;5.82;2.30;;;;;33.50;101768.00;;;;10236761;29;20210;-77
2022/06/16 13:31:47;;;;;;;4.30;2.10;;;;;33.60;101777.00;;;;10194687;29;20209;-77
2022/06/16 13:36:54;;;;;;;4.10;2.17;;;;;33.70;101762.00;;;;10199806;29;20232;-77
2022/06/16 13:42:13;;;;;;;3.58;2.28;;;;;33.30;101769.00;;;;10190455;29;20233;-77
2022/06/16 13:47:15;;;;;;;3.97;2.10;;;;;33.90;101771.00;;;;10221561;29;20186;-78
2022/06/16 13:52:27;;;;;;;4.85;1.98;;;;;33.50;101780.00;;;;10220716;29;20293;-77
2022/06/16 13:57:33;;;;;;;3.50;1.95;;;;;33.70;101789.00;;;;10219228;29;20902;-77
2022/06/16 14:02:57;;;;;;;5.60;2.38;;;;;33.20;101770.00;;;;10246318;29;20330;-78
2022/06/16 14:08:06;;;;;;;4.80;1.70;;;;;32.90;101773.00;;;;10249538;28;20229;-77
2022/06/16 14:13:11;;;;;;;2.97;1.60;;;;;33.20;101769.00;;;;10183395;29;20194;-77
2022/06/16 14:18:14;;;;;;;4.00;2.10;;;;;33.80;101776.00;;;;10198040;29;20526;-77
2022/06/16 14:23:40;;;;;;;4.30;2.08;;;;;34.80;101766.00;;;;10211721;29;20280;-77
2022/06/16 14:28:45;;;;;;;3.15;1.77;;;;;34.20;101772.00;;;;10220873;29;20205;-77
2022/06/16 14:33:47;;;;;;;2.22;1.58;;;;;33.70;101785.00;;;;10239917;29;20238;-77
2022/06/16 14:38:55;;;;;;;4.95;2.00;;;;;35.30;101784.00;;;;10212057;29;20190;-77
2022/06/16 14:44:12;;;;;;;3.80;1.80;;;;;36.30;101780.00;;;;10234536;29;20281;-78
2022/06/16 14:49:23;;;;;;;3.90;2.15;;;;;35.00;101795.00;;;;10202858;29;20615;-77
2022/06/16 14:54:31;;;;;;;4.93;2.35;;;;;35.30;101792.00;;;;10182607;29;20684;-77
2022/06/16 14:59:37;;;;;;;5.38;2.17;;;;;35.30;101793.00;;;;10233651;29;20202;-77
2022/06/16 15:04:41;;;;;;;3.47;1.83;;;;;38.30;101788.00;;;;10204982;29;20205;-78
2022/06/16 15:10:03;;;;;;;3.45;2.10;;;;;38.70;101793.00;;;;10185904;29;20258;-77
2022/06/16 15:15:14;;;;;;;4.32;2.22;;;;;35.90;101819.00;;;;10224078;29;20182;-78
2022/06/16 15:20:16;;;;;;;3.58;2.08;;;;;35.00;101811.00;;;;10252038;29;20649;-78
2022/06/16 15:25:31;;;;;;;2.50;1.98;;;;;37.60;101791.00;;;;10197593;29;20210;-79
2022/06/16 15:30:33;;;;;;;4.45;1.75;;;;;38.00;101783.00;;;;10185042;29;20198;-78
2022/06/16 15:40:56;;;;;;;5.97;2.15;;;;;33.60;101784.00;;;;10244533;29;20198;-78
2022/06/16 15:46:00;;;;;;;3.80;2.15;;;;;32.60;101777.00;;;;10244349;29;20225;-77
2022/06/16 15:51:09;;;;;;;4.95;2.20;;;;;31.90;101768.00;;;;10260405;29;20194;-78
2022/06/16 15:56:19;;;;;;;3.42;2.38;;;;;30.50;101771.00;;;;10193930;29;20618;-77
2022/06/16 16:01:21;;;;;;;5.60;2.67;;;;;29.60;101772.00;;;;10210513;29;20221;-78
2022/06/16 16:06:23;;;;;;;3.47;2.15;;;;;29.60;101772.00;;;;10196630;29;21541;-77
2022/06/16 16:11:27;;;;;;;5.35;2.70;;;;;29.30;101746.00;;;;10243173;29;20213;-77
2022/06/16 16:16:29;;;;;;;6.30;2.47;;;;;29.10;101737.00;;;;10201193;29;20194;-78
2022/06/16 16:21:39;;;;;;;5.07;2.45;;;;;28.80;101728.00;;;;10228518;29;20201;-78
2022/06/16 16:26:52;;;;;;;5.03;3.00;;;;;28.80;101729.00;;;;10209657;29;20213;-78
2022/06/16 16:32:04;;;;;;;5.43;2.53;;;;;28.40;101706.00;;;;10216282;29;20208;-78
2022/06/16 16:37:21;;;;;;;2.28;2.08;;;;;28.10;101702.00;;;;10226760;29;20600;-77
2022/06/16 16:48:06;;;;;;;3.17;2.28;;;;;27.90;101694.00;;;;10221694;29;20661;-78
2022/06/16 16:53:28;;;;;;;6.45;2.88;;;;;27.50;101707.00;;;;10211966;29;20198;-78
2022/06/16 16:58:31;;;;;;;3.17;2.42;;;;;27.60;101726.00;;;;10211491;29;20641;-78
2022/06/16 17:03:33;;;;;;;3.35;2.40;;;;;27.60;101717.00;;;;10227021;29;20574;-77
2022/06/16 17:08:36;;;;;;;6.40;2.45;;;;;27.30;101716.00;;;;10226607;28;20230;-78
2022/06/16 17:13:38;;;;;;;3.58;2.15;;;;;27.00;101705.00;;;;10225017;29;20189;-78
2022/06/16 17:18:40;;;;;;;3.30;1.80;;;;;27.50;101710.00;;;;10208168;29;20228;-77
2022/06/16 17:23:42;;;;;;;3.78;2.25;;;;;27.80;101712.00;;;;10230143;29;20208;-78
2022/06/16 17:28:44;;;;;;;5.80;2.50;;;;;27.50;101699.00;;;;10208578;29;20225;-78
2022/06/16 17:33:46;;;;;;;2.97;2.30;;;;;27.10;101709.00;;;;10213177;29;20194;-78
2022/06/16 17:38:48;;;;;;;4.38;2.50;;;;;26.80;101703.00;;;;10231301;29;20201;-78
2022/06/16 17:43:50;;;;;;;4.03;2.60;;;;;26.60;101714.00;;;;10221443;29;20210;-78
2022/06/16 17:48:57;;;;;;;5.05;2.55;;;;;26.40;101732.00;;;;10220820;29;20249;-78
2022/06/16 18:04:41;;;;;;;2.58;2.38;;;;;25.80;101729.00;;;;10238834;29;20210;-79
2022/06/16 18:09:43;;;;;;;5.45;2.40;;;;;25.70;101734.00;;;;10187429;29;20276;-77
2022/06/16 18:14:46;;;;;;;4.15;2.65;;;;;25.60;101734.00;;;;10221856;29;20210;-77
2022/06/16 18:19:48;;;;;;;7.60;2.38;;;;;25.30;101725.00;;;;10208429;29;20256;-77
2022/06/16 18:24:53;;;;;;;3.25;2.58;;;;;25.00;101724.00;;;;10206314;29;20213;-78
2022/06/16 18:29:56;;;;;;;3.08;2.10;;;;;24.70;101729.00;;;;10234436;29;20552;-77
2022/06/16 18:34:58;;;;;;;5.30;2.67;;;;;24.60;101718.00;;;;10237927;29;20197;-77
2022/06/16 18:40:00;;;;;;;5.45;2.65;;;;;24.50;101728.00;;;;10223379;29;20244;-77
2022/06/16 18:45:05;;;;;;;5.13;2.40;;;;;24.40;101723.00;;;;10237436;29;20237;-78
2022/06/16 18:50:11;;;;;;;5.55;2.20;;;;;24.40;101720.00;;;;10215011;28;20194;-78
2022/06/16 18:55:16;;;;;;;5.82;3.03;;;;;24.20;101717.00;;;;10210183;29;20216;-78
2022/06/16 19:00:20;;;;;;;5.00;2.20;;;;;23.90;101714.00;;;;10191361;29;20194;-77
2022/06/16 19:05:24;;;;;;;5.18;2.20;;;;;23.80;101725.00;;;;10230517;28;20614;-77
2022/06/16 19:10:29;;;;;;;6.47;2.92;;;;;23.80;101730.00;;;;10196972;29;20272;-77
2022/06/16 19:15:35;;;;;;;3.45;2.28;;;;;23.80;101738.00;;;;10225267;28;20194;-77
2022/06/16 19:20:44;;;;;;;4.90;2.67;;;;;23.60;101740.00;;;;10228299;29;20252;-77
2022/06/16 19:25:46;;;;;;;4.13;2.53;;;;;23.20;101744.00;;;;10247952;28;20605;-77
2022/06/16 19:30:48;;;;;;;4.05;2.30;;;;;23.00;101749.00;;;;10251035;28;20201;-76
2022/06/16 19:35:52;;;;;;;4.40;2.38;;;;;22.70;101733.00;;;;10246805;29;20190;-77
2022/06/16 19:40:54;;;;;;;7.53;3.00;;;;;22.40;101748.00;;;;10241704;28;20260;-77
2022/06/16 19:51:17;;;;;;;6.00;2.35;;;;;21.90;101778.00;;;;10225630;28;20204;-77
2022/06/16 19:56:19;;;;;;;3.75;2.35;;;;;21.70;101776.00;;;;10223431;29;20216;-78
2022/06/16 20:01:21;;;;;;;3.28;2.72;;;;;21.40;101783.00;;;;10192772;29;20652;-77
2022/06/16 20:06:23;;;;;;;4.05;2.75;;;;;21.00;101800.00;;;;10223323;29;20230;-76
2022/06/16 20:11:25;;;;;;;4.13;2.53;;;;;20.80;101802.00;;;;10235239;28;20204;-77
2022/06/16 20:16:28;;;;;;;5.13;2.55;;;;;20.60;101815.00;;;;10229554;28;20659;-77
2022/06/16 20:21:32;;;;;;;5.05;2.90;;;;;20.40;101818.00;;;;10244405;28;20595;-77
2022/06/16 20:26:35;;;;;;;2.50;2.30;;;;;20.20;101828.00;;;;10257574;28;20209;-78
2022/06/16 20:31:37;;;;;;;6.55;2.88;;;;;20.00;101837.00;;;;10224896;28;20236;-78
2022/06/16 20:36:39;;;;;;;4.20;2.60;;;;;19.90;101827.00;;;;10248281;28;20629;-77
2022/06/16 20:47:04;;;;;;;5.22;2.50;;;;;19.60;101821.00;;;;10223743;28;20232;-78
2022/06/16 20:52:10;;;;;;;5.85;2.88;;;;;19.50;101819.00;;;;10250600;28;20665;-77
2022/06/16 21:02:35;;;;;;;5.07;3.15;;;;;19.10;101830.00;;;;10243762;28;20194;-77
2022/06/16 21:07:37;;;;;;;5.28;2.85;;;;;19.00;101841.00;;;;10245406;28;20662;-77
2022/06/16 21:12:43;;;;;;;8.27;3.08;;;;;18.80;101846.00;;;;10205100;28;20197;-77
2022/06/16 21:17:47;;;;;;;6.45;2.97;;;;;18.70;101847.00;;;;10252947;28;20247;-76
2022/06/16 21:22:49;;;;;;;5.57;3.22;;;;;18.60;101839.00;;;;10212686;28;20189;-78
2022/06/16 21:27:52;;;;;;;6.05;3.15;;;;;18.60;101826.00;;;;10208804;28;20355;-77
2022/06/16 21:32:56;;;;;;;5.95;3.00;;;;;18.60;101830.00;;;;10227354;28;20752;-77
2022/06/16 21:37:59;;;;;;;7.85;3.63;;;;;18.50;101832.00;;;;10238450;28;20190;-76
2022/06/16 21:43:04;;;;;;;9.25;3.67;;;;;18.40;101830.00;;;;10202878;28;20597;-78
2022/06/16 21:48:14;;;;;;;6.28;3.70;;;;;18.40;101840.00;;;;10210371;28;20202;-78
2022/06/16 21:53:17;;;;;;;9.23;3.92;;;;;18.40;101836.00;;;;10230516;28;20231;-78
2022/06/16 21:58:21;;;;;;;9.57;3.53;;;;;18.30;101831.00;;;;10226153;28;20256;-78
2022/06/16 22:03:27;;;;;;;9.05;3.53;;;;;18.30;101835.00;;;;10234989;29;20220;-78
2022/06/16 22:08:30;;;;;;;12.07;4.03;;;;;18.30;101833.00;;;;10214269;28;20229;-78
2022/06/16 22:13:32;;;;;;;8.38;3.47;;;;;18.30;101846.00;;;;10196154;28;20202;-78
2022/06/16 22:18:36;;;;;;;7.75;3.70;;;;;18.40;101836.00;;;;10201403;29;20217;-78
2022/06/16 22:23:41;;;;;;;5.80;2.95;;;;;18.40;101838.00;;;;10210053;28;20209;-77
2022/06/16 22:28:49;;;;;;;9.25;3.35;;;;;18.50;101851.00;;;;10195323;28;20281;-78
2022/06/16 22:33:53;;;;;;;4.72;3.25;;;;;18.60;101843.00;;;;10240941;28;20613;-78
2022/06/16 22:38:55;;;;;;;5.13;3.10;;;;;18.70;101839.00;;;;10219932;28;20221;-78
2022/06/16 22:44:03;;;;;;;4.75;3.30;;;;;18.70;101842.00;;;;10214145;28;20233;-78
2022/06/16 22:49:06;;;;;;;4.32;3.17;;;;;18.60;101850.00;;;;10230879;28;20194;-78
2022/06/16 22:59:29;;;;;;;5.15;3.28;;;;;18.40;101883.00;;;;10213741;28;20266;-78
2022/06/16 23:04:34;;;;;;;7.70;3.50;;;;;18.20;101877.00;;;;10231752;28;20568;-78
2022/06/16 23:09:37;;;;;;;4.75;3.40;;;;;18.10;101869.00;;;;10228419;28;20320;-78
2022/06/16 23:14:40;;;;;;;6.30;3.60;;;;;18.00;101870.00;;;;10230430;29;20216;-79
2022/06/16 23:19:42;;;;;;;6.32;3.30;;;;;17.80;101859.00;;;;10230373;28;20209;-78
2022/06/16 23:24:45;;;;;;;8.48;3.20;;;;;17.70;101863.00;;;;10239537;28;20216;-78
2022/06/16 23:29:47;;;;;;;4.38;3.17;;;;;17.70;101851.00;;;;10215067;28;20193;-78
2022/06/16 23:34:57;;;;;;;4.05;3.20;;;;;17.70;101853.00;;;;10229847;28;20633;-77
2022/06/16 23:39:59;;;;;;;4.80;2.60;;;;;17.60;101851.00;;;;10215902;28;20767;-78
2022/06/16 23:45:03;;;;;;;5.63;3.35;;;;;17.60;101852.00;;;;10229803;28;20198;-78
2022/06/16 23:50:05;;;;;;;7.30;3.53;;;;;17.50;101869.00;;;;10215154;28;20201;-77
2022/06/16 23:55:11;;;;;;;3.75;3.30;;;;;17.50;101860.00;;;;10245413;28;20189;-77
